Terminal Aerodrome Forecast
Issued by NWS Cleveland, OH

Home | Current Version | Previous Version | Graphics & Text | Print | Product List | Glossary On
Versions: 1 2 3 4 5 6 7 8 9 10 11 12 13 14 15 16 17 18 19 20 21 22 23 24 25 26 27
000
FTUS41 KCLE 130300 AAA
TAFCLE
TAF AMD
KCLE 130301Z 1303/1406 10005KT P6SM SCT028 OVC040
     FM130500 14006KT P6SM OVC035
     FM131100 25008KT 5SM -SHRA BR BKN025 OVC060
     FM131400 27012G20KT P6SM OVC028
     FM132000 33010KT P6SM BKN035
     FM140100 01006KT P6SM BKN030=

USA.gov is the U.S. government's official web portal to all federal, state and local government web resources and services.